Terminal Aerodrome Forecast
Issued by NWS Sioux Falls, SD

Home | Current Version | Previous Version | Text Only | Print | Product List | Glossary On
Versions: 1 2 3 4 5 6 7 8 9 10 11 12 13 14 15 16 17 18
000
FTUS43 KFSD 271434 AAB
TAFFSD
TAF AMD
KFSD 271434Z 2715/2812 10003KT 1/2SM FG OVC002
     FM271600 13006KT 3SM BR BKN004
      TEMPO 2718/2719 6SM BR
     FM271900 15008KT P6SM SKC=

USA.gov is the U.S. government's official web portal to all federal, state and local government web resources and services.